createdAt,value
2019-05-19T00:01:00.691Z,7.53
2019-05-19T00:03:29.086Z,6.57
2019-05-19T00:05:57.368Z,6.67
2019-05-19T00:08:26.716Z,6.40
2019-05-19T00:10:55.004Z,7.23
2019-05-19T00:13:23.327Z,8.33
2019-05-19T00:15:51.604Z,6.20
2019-05-19T00:18:20.004Z,6.90
2019-05-19T00:20:48.311Z,6.20
2019-05-19T00:23:19.570Z,5.90
2019-05-19T00:25:47.904Z,5.97
2019-05-19T00:28:16.245Z,5.33
2019-05-19T00:30:44.574Z,5.20
2019-05-19T00:33:12.998Z,5.10
2019-05-19T00:35:41.322Z,5.83
2019-05-19T00:38:09.655Z,5.33
2019-05-19T00:40:37.994Z,5.10
2019-05-19T00:43:06.246Z,5.10
2019-05-19T00:45:35.059Z,4.73
2019-05-19T00:48:03.655Z,7.20
2019-05-19T00:50:31.907Z,4.73
2019-05-19T00:53:00.193Z,10.97
2019-05-19T00:55:29.400Z,5.03
2019-05-19T00:57:58.612Z,7.90
2019-05-19T01:00:26.991Z,5.77
2019-05-19T01:02:55.329Z,6.10
2019-05-19T01:05:23.746Z,6.73
2019-05-19T01:07:51.997Z,5.53
2019-05-19T01:10:20.420Z,7.27
2019-05-19T01:12:48.810Z,5.73
2019-05-19T01:15:17.462Z,6.27
2019-05-19T01:17:45.719Z,6.50
2019-05-19T01:20:14.425Z,7.07
2019-05-19T01:22:42.679Z,6.13
2019-05-19T01:25:11.224Z,7.93
2019-05-19T01:27:39.575Z,6.47
2019-05-19T01:30:08.695Z,6.03
2019-05-19T01:32:37.002Z,5.90
2019-05-19T01:35:05.714Z,5.67
2019-05-19T01:37:34.097Z,5.90
2019-05-19T01:40:02.766Z,5.80
2019-05-19T01:42:31.200Z,5.60
2019-05-19T01:44:59.525Z,7.63
2019-05-19T01:47:27.854Z,10.00
2019-05-19T01:50:15.071Z,5.53
2019-05-19T01:52:26.425Z,5.77
2019-05-19T01:54:54.719Z,6.73
2019-05-19T01:57:23.040Z,6.73
2019-05-19T01:59:51.412Z,6.77
2019-05-19T02:02:19.807Z,7.47
2019-05-19T02:04:48.133Z,8.33
2019-05-19T02:07:16.484Z,7.43
2019-05-19T02:09:44.741Z,10.07
2019-05-19T02:12:13.087Z,6.97
2019-05-19T02:14:41.415Z,7.13
2019-05-19T02:17:09.700Z,7.90
2019-05-19T02:19:38.030Z,7.63
2019-05-19T02:22:06.431Z,8.57
2019-05-19T02:24:34.706Z,8.20
2019-05-19T02:27:03.036Z,7.50
2019-05-19T02:29:31.380Z,7.67
2019-05-19T02:31:59.631Z,9.17
2019-05-19T02:34:27.911Z,7.70
2019-05-19T02:36:56.239Z,10.13
2019-05-19T02:39:24.514Z,9.27
2019-05-19T02:41:52.768Z,9.03
2019-05-19T02:44:22.382Z,7.90
2019-05-19T02:46:51.183Z,7.20
2019-05-19T02:49:20.281Z,7.50
2019-05-19T02:51:49.901Z,7.83
2019-05-19T02:54:19.723Z,8.77
2019-05-19T02:56:48.336Z,8.17
2019-05-19T02:59:16.762Z,8.53
2019-05-19T03:02:01.833Z,9.57
2019-05-19T03:04:30.230Z,9.60
2019-05-19T03:06:58.652Z,8.47
2019-05-19T03:09:26.975Z,9.87
2019-05-19T03:11:55.231Z,8.93
2019-05-19T03:14:23.514Z,8.67
2019-05-19T03:16:51.837Z,9.37
2019-05-19T03:19:20.111Z,10.70
2019-05-19T03:21:48.372Z,8.77
2019-05-19T03:24:16.724Z,9.97
2019-05-19T03:26:44.984Z,11.57
2019-05-19T03:29:14.980Z,10.67
2019-05-19T03:31:47.530Z,11.70
2019-05-19T03:34:15.827Z,10.57
2019-05-19T03:36:44.388Z,9.70
2019-05-19T03:39:12.651Z,10.80
2019-05-19T03:41:40.943Z,10.37
2019-05-19T03:44:09.278Z,11.20
2019-05-19T03:46:37.644Z,10.73
2019-05-19T03:49:05.899Z,10.73
2019-05-19T03:51:34.221Z,10.50
2019-05-19T03:54:02.512Z,11.27
2019-05-19T03:56:30.831Z,10.33
2019-05-19T03:58:59.111Z,11.70
2019-05-19T04:01:27.441Z,10.37
2019-05-19T04:03:55.774Z,10.43
2019-05-19T04:06:24.114Z,9.47
2019-05-19T04:08:52.379Z,9.43
2019-05-19T04:11:20.723Z,11.33
2019-05-19T04:13:48.979Z,10.50
2019-05-19T04:16:17.236Z,11.57
2019-05-19T04:18:45.529Z,8.87
2019-05-19T04:21:13.923Z,8.33
2019-05-19T04:23:42.412Z,8.57
2019-05-19T04:26:10.681Z,10.17
2019-05-19T04:28:39.004Z,10.27
2019-05-19T04:31:07.360Z,9.53
2019-05-19T04:33:35.612Z,11.23
2019-05-19T04:36:03.972Z,11.20
2019-05-19T04:38:32.301Z,10.23
2019-05-19T04:41:00.630Z,10.07
2019-05-19T04:43:28.993Z,14.67
2019-05-19T04:45:57.318Z,10.77
2019-05-19T04:48:25.744Z,11.37
2019-05-19T04:50:54.081Z,11.23
2019-05-19T04:53:22.687Z,11.53
2019-05-19T04:55:51.096Z,11.83
2019-05-19T04:58:19.382Z,11.97
2019-05-19T05:00:47.734Z,11.10
2019-05-19T05:03:16.085Z,13.23
2019-05-19T05:05:44.454Z,11.70
2019-05-19T05:08:28.011Z,11.30
2019-05-19T05:10:42.723Z,12.07
2019-05-19T05:13:11.076Z,15.30
2019-05-19T05:15:39.337Z,11.33
2019-05-19T05:18:07.589Z,12.97
2019-05-19T05:20:35.930Z,13.07
2019-05-19T05:23:04.263Z,15.33
2019-05-19T05:25:32.612Z,13.03
2019-05-19T05:28:00.942Z,14.27
2019-05-19T05:30:29.199Z,11.87
2019-05-19T05:32:57.563Z,13.73
2019-05-19T05:35:25.896Z,13.73
2019-05-19T05:37:54.246Z,13.40
2019-05-19T05:40:22.514Z,13.20
2019-05-19T05:42:51.048Z,15.90
2019-05-19T05:45:19.443Z,17.00
2019-05-19T05:47:47.719Z,13.63
2019-05-19T05:50:16.090Z,13.90
2019-05-19T05:52:44.419Z,14.33
2019-05-19T05:55:12.885Z,13.90
2019-05-19T05:57:41.217Z,11.83
2019-05-19T06:00:09.867Z,13.73
2019-05-19T06:02:38.210Z,12.87
2019-05-19T06:05:06.709Z,14.03
2019-05-19T06:07:35.083Z,11.60
2019-05-19T06:10:03.908Z,12.13
2019-05-19T06:12:32.411Z,12.60
2019-05-19T06:15:01.196Z,12.07
2019-05-19T06:17:29.671Z,10.13
2019-05-19T06:19:57.966Z,10.20
2019-05-19T06:22:26.286Z,11.70
2019-05-19T06:24:54.725Z,11.20
2019-05-19T06:27:23.340Z,13.00
2019-05-19T06:29:51.921Z,10.17
2019-05-19T06:32:34.403Z,12.87
2019-05-19T06:35:03.079Z,13.27
2019-05-19T06:37:31.585Z,10.73
2019-05-19T06:40:00.086Z,13.50
2019-05-19T06:42:28.412Z,11.60
2019-05-19T06:44:56.780Z,14.03
2019-05-19T06:47:25.108Z,13.23
2019-05-19T06:49:53.400Z,15.43
2019-05-19T06:52:21.738Z,13.77
2019-05-19T06:54:50.054Z,12.57
2019-05-19T06:57:18.419Z,14.80
2019-05-19T06:59:46.751Z,14.50
2019-05-19T07:02:15.128Z,12.17
2019-05-19T07:04:43.458Z,12.53
2019-05-19T07:07:11.780Z,11.10
2019-05-19T07:09:40.094Z,9.90
2019-05-19T07:12:08.666Z,11.43
2019-05-19T07:14:36.979Z,9.67
2019-05-19T07:17:05.222Z,9.57
2019-05-19T07:19:33.571Z,10.00
2019-05-19T07:22:01.819Z,9.33
2019-05-19T07:24:30.092Z,8.80
2019-05-19T07:26:58.358Z,11.27
2019-05-19T07:29:26.701Z,7.50
2019-05-19T07:31:54.956Z,7.47
2019-05-19T07:34:23.317Z,6.70
2019-05-19T07:36:51.658Z,8.20
2019-05-19T07:39:20.203Z,7.70
2019-05-19T07:41:48.487Z,8.00
2019-05-19T07:44:16.748Z,7.33
2019-05-19T07:46:45.108Z,8.77
2019-05-19T07:49:13.381Z,7.50
2019-05-19T07:51:41.740Z,7.63
2019-05-19T07:54:10.066Z,7.93
2019-05-19T07:56:38.359Z,6.83
2019-05-19T07:59:08.007Z,6.33
2019-05-19T08:01:36.550Z,6.73
2019-05-19T08:04:04.832Z,6.63
2019-05-19T08:06:33.161Z,7.10
2019-05-19T08:09:01.558Z,7.07
2019-05-19T08:11:29.866Z,7.20
2019-05-19T08:13:58.206Z,6.30
2019-05-19T08:16:26.524Z,6.83
2019-05-19T08:18:54.844Z,5.87
2019-05-19T08:21:23.156Z,5.40
2019-05-19T08:24:00.413Z,6.27
2019-05-19T08:26:21.438Z,5.47
2019-05-19T08:28:50.013Z,5.13
2019-05-19T08:31:18.297Z,5.90
2019-05-19T08:33:46.658Z,5.73
2019-05-19T08:36:14.999Z,5.00
2019-05-19T08:38:43.253Z,5.30
2019-05-19T08:41:11.524Z,5.20
2019-05-19T08:43:39.892Z,4.63
2019-05-19T08:46:08.327Z,4.90
2019-05-19T08:48:36.583Z,4.90
2019-05-19T08:51:10.576Z,6.10
2019-05-19T08:53:38.847Z,5.50
2019-05-19T08:56:07.098Z,5.87
2019-05-19T08:58:35.514Z,5.73
2019-05-19T09:01:03.864Z,4.90
2019-05-19T09:03:32.201Z,5.10
2019-05-19T09:06:00.456Z,4.93
2019-05-19T09:08:28.739Z,4.63
2019-05-19T09:10:56.986Z,4.60
2019-05-19T09:13:25.354Z,5.53
2019-05-19T09:15:53.678Z,4.70
2019-05-19T09:18:21.986Z,5.17
2019-05-19T09:20:50.354Z,5.90
2019-05-19T09:23:18.766Z,5.40
2019-05-19T09:25:47.122Z,4.97
2019-05-19T09:28:15.376Z,4.87
2019-05-19T09:30:43.662Z,4.60
2019-05-19T09:33:12.036Z,6.17
2019-05-19T09:35:40.361Z,4.50
2019-05-19T09:38:08.640Z,4.42
2019-05-19T09:40:36.972Z,4.80
2019-05-19T09:43:05.561Z,4.42
2019-05-19T09:45:33.879Z,4.95
2019-05-19T09:48:02.239Z,5.47
2019-05-19T09:50:30.495Z,3.90
2019-05-19T09:52:58.772Z,3.92
2019-05-19T09:55:27.114Z,4.20
2019-05-19T09:57:55.515Z,4.33
2019-05-19T10:00:24.036Z,6.12
2019-05-19T10:02:52.370Z,5.00
2019-05-19T10:05:20.758Z,4.65
2019-05-19T10:07:49.029Z,3.90
2019-05-19T10:10:23.524Z,5.55
2019-05-19T10:12:51.857Z,6.80
2019-05-19T10:15:20.285Z,4.00
2019-05-19T10:17:48.630Z,3.60
2019-05-19T10:20:17.384Z,6.03
2019-05-19T10:22:45.662Z,4.90
2019-05-19T10:25:23.449Z,4.75
2019-05-19T10:27:45.483Z,4.37
2019-05-19T10:30:14.076Z,5.08
2019-05-19T10:32:42.419Z,4.92
2019-05-19T10:35:10.745Z,4.17
2019-05-19T10:37:39.021Z,4.20
2019-05-19T10:40:07.551Z,4.08
2019-05-19T10:42:35.976Z,3.95
2019-05-19T10:45:08.867Z,4.75
2019-05-19T10:47:37.235Z,4.03
2019-05-19T10:50:05.840Z,3.83
2019-05-19T10:52:34.173Z,3.92
2019-05-19T10:55:02.648Z,3.98
2019-05-19T10:57:30.899Z,4.00
2019-05-19T10:59:59.197Z,6.50
2019-05-19T11:02:27.538Z,3.58
2019-05-19T11:04:55.895Z,4.00
2019-05-19T11:07:24.238Z,3.80
2019-05-19T11:09:52.601Z,4.00
2019-05-19T11:12:21.833Z,4.12
2019-05-19T11:14:50.287Z,4.20
2019-05-19T11:17:18.639Z,3.45
2019-05-19T11:19:47.005Z,3.60
2019-05-19T11:22:15.427Z,3.55
2019-05-19T11:24:43.772Z,3.17
2019-05-19T11:27:12.114Z,3.55
2019-05-19T11:29:40.371Z,3.40
2019-05-19T11:32:08.838Z,4.20
2019-05-19T11:34:37.274Z,3.83
2019-05-19T11:37:07.468Z,3.30
2019-05-19T11:39:35.939Z,4.03
2019-05-19T11:42:04.347Z,3.02
2019-05-19T11:44:32.819Z,3.02
2019-05-19T11:47:01.252Z,2.72
2019-05-19T11:49:29.691Z,3.22
2019-05-19T11:51:58.060Z,2.83
2019-05-19T11:54:26.444Z,3.30
2019-05-19T11:56:54.799Z,3.27
2019-05-19T11:59:23.293Z,3.98
2019-05-19T12:01:51.706Z,3.65
2019-05-19T12:04:20.118Z,3.17
2019-05-19T12:06:48.503Z,3.10
2019-05-19T12:09:16.854Z,3.55
2019-05-19T12:11:45.308Z,3.25
2019-05-19T12:14:13.669Z,2.95
2019-05-19T12:16:42.071Z,2.98
2019-05-19T12:19:10.455Z,4.08
2019-05-19T12:21:38.901Z,2.87
2019-05-19T12:24:07.233Z,3.12
2019-05-19T12:26:35.645Z,3.30
2019-05-19T12:29:04.098Z,3.30
2019-05-19T12:31:32.471Z,3.02
2019-05-19T12:34:00.923Z,3.22
2019-05-19T12:36:29.289Z,2.87
2019-05-19T12:38:57.666Z,3.40
2019-05-19T12:41:25.995Z,2.90
2019-05-19T12:43:54.436Z,3.22
2019-05-19T12:46:22.877Z,3.00
2019-05-19T12:48:51.253Z,2.98
2019-05-19T12:51:19.667Z,4.55
2019-05-19T12:53:48.021Z,3.10
2019-05-19T12:56:16.401Z,3.55
2019-05-19T12:58:44.831Z,4.05
2019-05-19T13:01:13.226Z,3.85
2019-05-19T13:03:41.582Z,3.00
2019-05-19T13:06:09.934Z,3.27
2019-05-19T13:08:38.338Z,3.22
2019-05-19T13:11:06.754Z,3.60
2019-05-19T13:13:35.168Z,2.65
2019-05-19T13:16:03.600Z,3.40
2019-05-19T13:18:31.907Z,3.52
2019-05-19T13:21:00.256Z,3.80
2019-05-19T13:23:28.587Z,3.50
2019-05-19T13:25:56.942Z,3.58
2019-05-19T13:28:25.264Z,3.33
2019-05-19T13:30:53.657Z,3.58
2019-05-19T13:33:21.943Z,2.98
2019-05-19T13:35:50.191Z,3.60
2019-05-19T13:38:18.551Z,3.12
2019-05-19T13:40:46.867Z,3.37
2019-05-19T13:43:15.181Z,3.33
2019-05-19T13:45:43.521Z,3.75
2019-05-19T13:48:11.878Z,3.60
2019-05-19T13:50:40.208Z,4.10
2019-05-19T13:53:08.463Z,3.77
2019-05-19T13:55:36.744Z,4.78
2019-05-19T13:58:05.046Z,3.22
2019-05-19T14:00:33.513Z,3.55
2019-05-19T14:03:01.795Z,4.03
2019-05-19T14:05:30.078Z,3.50
2019-05-19T14:07:58.360Z,3.70
2019-05-19T14:10:26.747Z,3.80
2019-05-19T14:12:55.106Z,3.47
2019-05-19T14:15:23.363Z,3.22
2019-05-19T14:17:51.729Z,3.83
2019-05-19T14:20:20.151Z,3.62
2019-05-19T14:22:48.453Z,3.42
2019-05-19T14:25:16.782Z,3.20
2019-05-19T14:27:45.043Z,3.98
2019-05-19T14:30:13.670Z,4.08
2019-05-19T14:32:41.963Z,3.87
2019-05-19T14:35:10.490Z,3.80
2019-05-19T14:37:38.907Z,3.98
2019-05-19T14:40:07.380Z,3.65
2019-05-19T14:42:43.293Z,5.53
2019-05-19T14:45:13.306Z,3.67
2019-05-19T14:47:41.624Z,4.55
2019-05-19T14:50:10.159Z,4.40
2019-05-19T14:52:38.463Z,3.60
2019-05-19T14:55:06.779Z,4.03
2019-05-19T14:57:44.543Z,4.80
2019-05-19T15:00:06.560Z,4.07
2019-05-19T15:02:34.928Z,3.93
2019-05-19T15:05:03.329Z,3.87
2019-05-19T15:07:31.679Z,3.55
2019-05-19T15:09:59.937Z,3.50
2019-05-19T15:12:28.216Z,4.55
2019-05-19T15:14:56.489Z,3.90
2019-05-19T15:17:24.787Z,3.65
2019-05-19T15:19:53.062Z,3.42
2019-05-19T15:22:21.320Z,4.33
2019-05-19T15:24:49.667Z,3.98
2019-05-19T15:27:17.923Z,3.47
2019-05-19T15:29:46.210Z,3.50
2019-05-19T15:32:14.549Z,3.80
2019-05-19T15:34:42.823Z,4.00
2019-05-19T15:37:11.155Z,4.37
2019-05-19T15:39:39.583Z,4.57
2019-05-19T15:42:07.837Z,3.90
2019-05-19T15:44:36.113Z,4.53
2019-05-19T15:47:04.444Z,4.40
2019-05-19T15:49:32.718Z,3.77
2019-05-19T15:52:04.185Z,4.57
2019-05-19T15:54:31.013Z,4.13
2019-05-19T15:56:59.454Z,3.63
2019-05-19T15:59:27.705Z,4.20
2019-05-19T16:01:56.001Z,3.67
2019-05-19T16:04:24.321Z,3.70
2019-05-19T16:06:52.676Z,3.70
2019-05-19T16:09:21.018Z,3.60
2019-05-19T16:11:49.431Z,3.73
2019-05-19T16:14:17.749Z,3.20
2019-05-19T16:16:46.070Z,4.87
2019-05-19T16:19:14.354Z,4.10
2019-05-19T16:21:42.845Z,3.93
2019-05-19T16:24:11.496Z,4.43
2019-05-19T16:26:39.994Z,4.20
2019-05-19T16:29:08.537Z,3.80
2019-05-19T16:31:36.850Z,3.50
2019-05-19T16:34:05.299Z,4.60
2019-05-19T16:36:33.558Z,3.17
2019-05-19T16:39:02.007Z,3.60
2019-05-19T16:41:30.316Z,3.80
2019-05-19T16:43:58.934Z,3.50
2019-05-19T16:46:27.213Z,3.40
2019-05-19T16:48:55.468Z,3.67
2019-05-19T16:51:23.752Z,3.60
2019-05-19T16:53:53.722Z,4.60
2019-05-19T16:56:22.016Z,3.63
2019-05-19T16:58:50.331Z,4.20
2019-05-19T17:01:20.072Z,3.83
2019-05-19T17:03:48.446Z,4.97
2019-05-19T17:06:16.705Z,4.60
2019-05-19T17:08:45.051Z,4.27
2019-05-19T17:11:18.447Z,4.13
2019-05-19T17:13:43.275Z,4.13
2019-05-19T17:16:11.595Z,3.93
2019-05-19T17:18:39.889Z,4.20
2019-05-19T17:21:08.198Z,4.07
2019-05-19T17:23:36.500Z,5.53
2019-05-19T17:26:04.896Z,4.00
2019-05-19T17:28:33.251Z,3.87
2019-05-19T17:31:01.498Z,4.27
2019-05-19T17:33:29.768Z,4.07
2019-05-19T17:35:58.051Z,3.43
2019-05-19T17:38:26.376Z,4.67
2019-05-19T17:40:54.766Z,4.10
2019-05-19T17:43:23.015Z,3.70
2019-05-19T17:45:51.292Z,4.23
2019-05-19T17:48:26.611Z,4.10
2019-05-19T17:50:49.743Z,4.00
2019-05-19T17:53:17.982Z,4.33
2019-05-19T17:55:46.747Z,4.00
2019-05-19T17:58:15.138Z,4.10
2019-05-19T18:00:44.243Z,4.37
2019-05-19T18:03:13.279Z,4.13
2019-05-19T18:05:41.531Z,4.90
2019-05-19T18:08:09.978Z,4.43
2019-05-19T18:10:38.395Z,5.43
2019-05-19T18:13:06.720Z,5.43
2019-05-19T18:15:35.670Z,4.73
2019-05-19T18:18:03.992Z,4.23
2019-05-19T18:20:32.327Z,4.90
2019-05-19T18:23:00.656Z,4.83
2019-05-19T18:25:29.962Z,5.07
2019-05-19T18:27:58.254Z,4.83
2019-05-19T18:30:26.657Z,5.37
2019-05-19T18:32:55.020Z,5.23
2019-05-19T18:35:23.345Z,5.53
2019-05-19T18:37:51.691Z,6.00
2019-05-19T18:40:20.081Z,6.10
2019-05-19T18:42:48.407Z,4.60
2019-05-19T18:45:16.923Z,5.50
2019-05-19T18:47:45.189Z,4.70
2019-05-19T18:50:14.252Z,5.50
2019-05-19T18:52:42.503Z,5.93
2019-05-19T18:55:10.823Z,5.97
2019-05-19T18:57:39.108Z,5.83
2019-05-19T19:00:07.707Z,5.20
2019-05-19T19:02:36.191Z,5.27
2019-05-19T19:05:05.936Z,4.63
2019-05-19T19:07:47.948Z,5.00
2019-05-19T19:10:16.267Z,5.03
2019-05-19T19:12:44.604Z,4.87
2019-05-19T19:15:13.023Z,4.60
2019-05-19T19:17:41.279Z,4.97
2019-05-19T19:20:10.857Z,5.00
2019-05-19T19:22:41.109Z,4.73
2019-05-19T19:25:09.233Z,4.83
2019-05-19T19:27:37.597Z,7.10
2019-05-19T19:30:06.383Z,5.17
2019-05-19T19:32:34.672Z,4.17
2019-05-19T19:35:03.423Z,4.83
2019-05-19T19:37:31.826Z,4.77
2019-05-19T19:40:00.260Z,6.70
2019-05-19T19:42:28.694Z,5.40
2019-05-19T19:44:58.101Z,4.07
2019-05-19T19:47:26.535Z,3.73
2019-05-19T19:49:55.048Z,4.43
2019-05-19T19:52:23.396Z,4.10
2019-05-19T19:54:52.017Z,4.03
2019-05-19T19:57:20.390Z,4.40
2019-05-19T19:59:48.684Z,4.43
2019-05-19T20:02:17.081Z,3.87
2019-05-19T20:04:45.490Z,3.70
2019-05-19T20:07:13.922Z,3.53
2019-05-19T20:09:42.336Z,3.70
2019-05-19T20:12:10.775Z,4.40
2019-05-19T20:14:39.104Z,3.90
2019-05-19T20:17:07.550Z,3.90
2019-05-19T20:19:35.890Z,7.97
2019-05-19T20:22:04.216Z,4.57
2019-05-19T20:24:32.499Z,4.20
2019-05-19T20:27:00.819Z,4.07
2019-05-19T20:29:29.169Z,4.43
2019-05-19T20:31:57.416Z,3.97
2019-05-19T20:34:27.476Z,3.67
2019-05-19T20:36:55.812Z,3.77
2019-05-19T20:39:24.102Z,5.40
2019-05-19T20:41:52.423Z,7.57
2019-05-19T20:44:20.743Z,4.20
2019-05-19T20:46:49.100Z,3.97
2019-05-19T20:49:17.415Z,4.60
2019-05-19T20:51:45.682Z,4.80
2019-05-19T20:54:13.942Z,4.03
2019-05-19T20:56:42.303Z,4.03
2019-05-19T20:59:10.624Z,3.43
2019-05-19T21:01:38.908Z,3.80
2019-05-19T21:04:07.230Z,3.50
2019-05-19T21:06:35.517Z,3.77
2019-05-19T21:09:05.111Z,4.03
2019-05-19T21:11:33.466Z,3.90
2019-05-19T21:14:01.829Z,3.67
2019-05-19T21:16:30.143Z,5.17
2019-05-19T21:18:58.514Z,4.53
2019-05-19T21:21:26.868Z,4.77
2019-05-19T21:23:55.188Z,6.10
2019-05-19T21:26:23.443Z,5.70
2019-05-19T21:28:52.059Z,4.93
2019-05-19T21:31:20.375Z,5.57
2019-05-19T21:33:48.639Z,5.23
2019-05-19T21:36:16.984Z,4.07
2019-05-19T21:38:45.320Z,4.23
2019-05-19T21:41:13.675Z,10.63
2019-05-19T21:43:41.946Z,4.33
2019-05-19T21:46:10.255Z,4.63
2019-05-19T21:48:38.623Z,4.80
2019-05-19T21:51:06.906Z,3.70
2019-05-19T21:53:35.164Z,3.60
2019-05-19T21:56:03.602Z,4.30
2019-05-19T21:58:31.950Z,3.40
2019-05-19T22:01:00.268Z,7.33
2019-05-19T22:03:28.544Z,4.83
2019-05-19T22:05:56.807Z,3.27
2019-05-19T22:08:25.233Z,3.30
2019-05-19T22:10:53.559Z,6.73
2019-05-19T22:13:21.841Z,4.67
2019-05-19T22:15:50.984Z,3.40
2019-05-19T22:18:19.312Z,7.63
2019-05-19T22:20:48.027Z,5.47
2019-05-19T22:23:16.316Z,5.30
2019-05-19T22:25:44.604Z,6.30
2019-05-19T22:28:12.879Z,5.10
2019-05-19T22:30:41.227Z,5.17
2019-05-19T22:33:09.554Z,3.47
2019-05-19T22:35:37.970Z,4.13
2019-05-19T22:38:09.351Z,4.07
2019-05-19T22:40:36.285Z,4.00
2019-05-19T22:43:04.568Z,3.43
2019-05-19T22:45:32.831Z,6.00
2019-05-19T22:48:01.334Z,5.50
2019-05-19T22:50:29.747Z,3.83
2019-05-19T22:52:58.217Z,3.93
2019-05-19T22:55:26.675Z,3.87
2019-05-19T22:57:55.021Z,6.70
2019-05-19T23:00:23.499Z,4.10
2019-05-19T23:02:51.755Z,4.53
2019-05-19T23:05:20.247Z,5.43
2019-05-19T23:07:48.612Z,2.27
2019-05-19T23:10:16.928Z,2.70
2019-05-19T23:12:45.201Z,3.00
2019-05-19T23:15:14.691Z,2.00
2019-05-19T23:17:42.974Z,2.33
2019-05-19T23:20:11.669Z,2.50
2019-05-19T23:22:40.093Z,2.10
2019-05-19T23:25:08.528Z,2.73
2019-05-19T23:27:36.850Z,1.87
2019-05-19T23:30:06.780Z,2.10
2019-05-19T23:32:35.101Z,4.47
2019-05-19T23:35:05.128Z,1.90
2019-05-19T23:37:33.457Z,2.63
2019-05-19T23:40:03.992Z,4.40
2019-05-19T23:42:32.235Z,16.70
2019-05-19T23:45:00.516Z,3.37
2019-05-19T23:47:28.840Z,2.70
2019-05-19T23:49:57.164Z,2.27
2019-05-19T23:52:25.516Z,2.63
2019-05-19T23:54:53.769Z,2.23
2019-05-19T23:57:22.056Z,2.03
2019-05-19T23:59:50.302Z,4.00
